Kezdőlap
METAR-TAF:

METAR-TAF

Repülőterek :

Tucson, Arizona, Amerikai Egyesült Államok

földrajzi szélesség: 32-24-34N, földrajzi hosszúság: 111-13-06W, magasság: 619 m

Jelenlegi meteorológiai megfigyelések

A jelentés 22 perccel ezelõtt készült, 13:55 UTC
Kelet-délkeleti szél 6 kt
Hőmérséklet 13°C
Páratartalom 54%
Légköri nyomás 1020 hPa
Látótávolság: 16.1 km
Derült ég

METAR: KAVQ 181355Z AUTO 11006KT 10SM CLR 13/04 A3012 RMK AO2 T01270042

Idő: 07:17 (14:17 UTC)


TAF: hiányzik

Meteorológiai megfigyelések és előrejelzések több, mint 4000 repülőtéren (METAR és TAF jelentéseket).

A térképen piros és sárga pontok jelzik az elérhető meteorológiai állomásokat.

Mozgassa az egeret a pont fölött, hogy megjelenjen az állomás neve.

Azután kattintson az időjárási megfigyelések és előrejelzések megtekintéséhez.

A térkép megváltoztatása: kattintson a fekete keresztel jelölt zöld gombra ráközelítéshez, a vonallal jelölt zöld gombra távolításhoz, vagy a zöld nyilakra a szomszédos térképek eléréséhez.


METAR-TAF: